createdAt,value
2018-07-16T00:00:50.210Z,2.90
2018-07-16T00:03:18.583Z,3.00
2018-07-16T00:05:46.903Z,3.20
2018-07-16T00:08:15.296Z,2.90
2018-07-16T00:10:43.735Z,3.17
2018-07-16T00:13:12.083Z,3.00
2018-07-16T00:15:40.461Z,3.00
2018-07-16T00:18:08.811Z,2.73
2018-07-16T00:20:37.224Z,2.73
2018-07-16T00:23:05.758Z,3.00
2018-07-16T00:25:34.163Z,3.00
2018-07-16T00:28:02.524Z,3.53
2018-07-16T00:30:30.926Z,3.53
2018-07-16T00:32:59.256Z,3.30
2018-07-16T00:35:27.701Z,3.30
2018-07-16T00:37:56.029Z,3.30
2018-07-16T00:40:24.432Z,3.37
2018-07-16T00:42:52.808Z,3.60
2018-07-16T00:45:21.149Z,3.10
2018-07-16T00:47:49.468Z,3.30
2018-07-16T00:50:17.862Z,3.10
2018-07-16T00:52:46.180Z,3.07
2018-07-16T00:55:14.564Z,3.10
2018-07-16T00:57:42.877Z,3.50
2018-07-16T01:00:11.404Z,3.00
2018-07-16T01:02:39.753Z,3.10
2018-07-16T01:05:08.095Z,3.17
2018-07-16T01:07:36.426Z,3.33
2018-07-16T01:10:04.815Z,3.17
2018-07-16T01:12:33.200Z,3.50
2018-07-16T01:15:01.553Z,3.40
2018-07-16T01:17:29.936Z,3.37
2018-07-16T01:19:58.277Z,3.60
2018-07-16T01:22:26.713Z,3.47
2018-07-16T01:24:55.104Z,3.37
2018-07-16T01:27:23.477Z,3.50
2018-07-16T01:29:51.852Z,3.60
2018-07-16T01:32:20.177Z,3.20
2018-07-16T01:34:48.579Z,3.60
2018-07-16T01:37:16.914Z,3.20
2018-07-16T01:39:45.883Z,3.20
2018-07-16T01:42:14.232Z,3.73
2018-07-16T01:44:42.578Z,3.67
2018-07-16T01:47:11.205Z,3.50
2018-07-16T01:49:39.583Z,3.30
2018-07-16T01:52:07.992Z,4.00
2018-07-16T01:54:36.395Z,3.40
2018-07-16T01:57:04.769Z,3.20
2018-07-16T01:59:33.169Z,3.20
2018-07-16T02:02:01.557Z,3.40
2018-07-16T02:04:29.963Z,3.63
2018-07-16T02:06:58.332Z,3.57
2018-07-16T02:09:27.032Z,3.40
2018-07-16T02:11:55.396Z,3.33
2018-07-16T02:14:23.762Z,3.50
2018-07-16T02:16:52.151Z,3.57
2018-07-16T02:19:20.504Z,3.40
2018-07-16T02:21:48.863Z,3.73
2018-07-16T02:24:17.186Z,3.83
2018-07-16T02:26:45.562Z,3.50
2018-07-16T02:29:13.943Z,3.90
2018-07-16T02:31:42.342Z,3.70
2018-07-16T02:34:10.712Z,3.47
2018-07-16T02:36:39.075Z,3.97
2018-07-16T02:39:07.393Z,3.17
2018-07-16T02:41:35.766Z,3.50
2018-07-16T02:44:04.100Z,3.73
2018-07-16T02:46:32.487Z,3.73
2018-07-16T02:49:00.812Z,3.47
2018-07-16T02:51:29.179Z,3.57
2018-07-16T02:53:57.554Z,3.33
2018-07-16T02:56:26.134Z,3.63
2018-07-16T02:58:54.606Z,3.77
2018-07-16T03:01:23.024Z,3.50
2018-07-16T03:03:51.433Z,4.10
2018-07-16T03:06:19.812Z,3.87
2018-07-16T03:08:48.133Z,3.77
2018-07-16T03:11:16.545Z,3.60
2018-07-16T03:13:45.572Z,3.70
2018-07-16T03:16:13.976Z,3.70
2018-07-16T03:18:43.113Z,3.50
2018-07-16T03:21:11.536Z,3.80
2018-07-16T03:23:39.879Z,3.40
2018-07-16T03:26:08.238Z,3.70
2018-07-16T03:28:36.575Z,3.83
2018-07-16T03:31:04.968Z,4.43
2018-07-16T03:33:33.412Z,3.70
2018-07-16T03:36:01.876Z,4.00
2018-07-16T03:38:30.316Z,3.87
2018-07-16T03:40:58.763Z,3.83
2018-07-16T03:43:27.097Z,4.10
2018-07-16T03:45:55.436Z,4.03
2018-07-16T03:48:23.764Z,4.10
2018-07-16T03:50:52.181Z,3.87
2018-07-16T03:53:20.534Z,4.07
2018-07-16T03:55:48.991Z,3.80
2018-07-16T03:58:17.343Z,4.00
2018-07-16T04:00:45.717Z,4.30
2018-07-16T04:03:14.040Z,4.33
2018-07-16T04:05:42.398Z,3.87
2018-07-16T04:08:10.727Z,4.23
2018-07-16T04:10:39.054Z,3.90
2018-07-16T04:13:07.487Z,4.00
2018-07-16T04:15:35.840Z,4.27
2018-07-16T04:18:08.344Z,4.40
2018-07-16T04:20:36.654Z,4.27
2018-07-16T04:23:05.073Z,4.30
2018-07-16T04:25:33.423Z,4.10
2018-07-16T04:28:01.766Z,4.13
2018-07-16T04:30:30.091Z,4.13
2018-07-16T04:32:58.435Z,4.10
2018-07-16T04:35:26.834Z,4.37
2018-07-16T04:37:55.180Z,4.97
2018-07-16T04:40:23.547Z,4.77
2018-07-16T04:42:52.096Z,4.63
2018-07-16T04:45:20.521Z,4.10
2018-07-16T04:47:48.896Z,4.70
2018-07-16T04:50:17.336Z,4.80
2018-07-16T04:52:45.733Z,4.60
2018-07-16T04:55:14.060Z,4.50
2018-07-16T04:57:42.412Z,4.50
2018-07-16T05:00:10.748Z,4.60
2018-07-16T05:02:39.097Z,4.00
2018-07-16T05:05:07.416Z,4.30
2018-07-16T05:07:35.824Z,4.00
2018-07-16T05:10:04.176Z,4.20
2018-07-16T05:12:32.860Z,4.47
2018-07-16T05:15:01.199Z,3.97
2018-07-16T05:17:30.224Z,4.37
2018-07-16T05:19:58.728Z,4.03
2018-07-16T05:22:27.150Z,3.90
2018-07-16T05:24:55.578Z,3.93
2018-07-16T05:27:24.060Z,4.00
2018-07-16T05:29:52.409Z,4.43
2018-07-16T05:32:20.939Z,4.10
2018-07-16T05:34:50.524Z,3.93
2018-07-16T05:37:20.976Z,4.03
2018-07-16T05:39:54.306Z,4.10
2018-07-16T05:42:25.204Z,3.77
2018-07-16T05:45:13.632Z,3.50
2018-07-16T05:47:41.998Z,3.80
2018-07-16T05:50:10.541Z,3.90
2018-07-16T05:52:42.587Z,3.77
2018-07-16T05:55:12.679Z,3.70
2018-07-16T05:57:41.296Z,3.83
2018-07-16T06:00:10.093Z,4.13
2018-07-16T06:02:38.787Z,3.47
2018-07-16T06:05:08.155Z,3.80
2018-07-16T06:07:37.221Z,3.70
2018-07-16T06:10:07.165Z,3.70
2018-07-16T06:12:37.877Z,3.73
2018-07-16T06:15:12.190Z,3.80
2018-07-16T06:17:40.824Z,3.72
2018-07-16T06:20:10.812Z,3.65
2018-07-16T06:22:39.780Z,3.50
2018-07-16T06:25:08.822Z,3.80
2018-07-16T06:27:37.332Z,3.37
2018-07-16T06:30:05.948Z,4.00
2018-07-16T06:32:34.606Z,3.08
2018-07-16T06:35:03.347Z,3.10
2018-07-16T06:37:32.346Z,3.67
2018-07-16T06:40:01.083Z,3.65
2018-07-16T06:42:29.451Z,3.67
2018-07-16T06:44:57.988Z,3.50
2018-07-16T06:47:26.567Z,3.45
2018-07-16T06:49:55.214Z,3.20
2018-07-16T06:52:23.790Z,4.10
2018-07-16T06:54:52.369Z,3.65
2018-07-16T06:57:21.139Z,3.80
2018-07-16T06:59:49.765Z,3.83
2018-07-16T07:02:18.350Z,3.40
2018-07-16T07:04:46.950Z,3.58
2018-07-16T07:07:15.444Z,3.58
2018-07-16T07:09:43.962Z,3.67
2018-07-16T07:12:12.591Z,3.65
2018-07-16T07:14:41.235Z,3.80
2018-07-16T07:17:09.731Z,3.70
2018-07-16T07:19:38.407Z,3.87
2018-07-16T07:22:06.929Z,4.12
2018-07-16T07:24:35.461Z,3.70
2018-07-16T07:27:04.209Z,3.70
2018-07-16T07:29:32.963Z,3.60
2018-07-16T07:32:01.832Z,3.30
2018-07-16T07:34:30.400Z,3.85
2018-07-16T07:36:59.073Z,3.42
2018-07-16T07:39:27.688Z,4.10
2018-07-16T07:41:56.206Z,3.52
2018-07-16T07:44:24.794Z,3.42
2018-07-16T07:46:53.873Z,3.95
2018-07-16T07:49:22.431Z,3.60
2018-07-16T07:51:51.160Z,3.37
2018-07-16T07:54:20.013Z,3.50
2018-07-16T07:56:48.384Z,3.60
2018-07-16T07:59:16.904Z,3.52
2018-07-16T08:01:46.100Z,3.70
2018-07-16T08:04:14.641Z,3.58
2018-07-16T08:06:47.311Z,3.30
2018-07-16T08:09:15.978Z,3.47
2018-07-16T08:11:44.590Z,3.80
2018-07-16T08:14:19.398Z,3.50
2018-07-16T08:16:48.106Z,3.65
2018-07-16T08:19:17.073Z,3.65
2018-07-16T08:21:45.570Z,3.80
2018-07-16T08:24:14.151Z,3.98
2018-07-16T08:26:42.781Z,3.60
2018-07-16T08:29:11.402Z,3.50
2018-07-16T08:31:39.904Z,4.08
2018-07-16T08:34:08.572Z,3.83
2018-07-16T08:36:37.173Z,3.77
2018-07-16T08:39:06.540Z,3.80
2018-07-16T08:41:37.180Z,4.28
2018-07-16T08:44:05.809Z,3.60
2018-07-16T08:46:34.300Z,3.80
2018-07-16T08:49:02.859Z,3.75
2018-07-16T08:51:31.837Z,3.70
2018-07-16T08:54:00.567Z,3.80
2018-07-16T08:56:29.085Z,3.92
2018-07-16T08:58:59.219Z,4.22
2018-07-16T09:01:27.825Z,4.12
2018-07-16T09:03:56.551Z,3.75
2018-07-16T09:06:24.983Z,3.80
2018-07-16T09:08:53.781Z,3.65
2018-07-16T09:11:22.426Z,4.05
2018-07-16T09:13:51.215Z,3.70
2018-07-16T09:16:20.716Z,3.83
2018-07-16T09:18:49.386Z,4.05
2018-07-16T09:21:17.957Z,3.70
2018-07-16T09:23:46.708Z,3.50
2018-07-16T09:26:15.516Z,4.03
2018-07-16T09:28:45.156Z,4.17
2018-07-16T09:31:13.715Z,4.47
2018-07-16T09:33:42.642Z,3.62
2018-07-16T09:36:11.159Z,4.33
2018-07-16T09:38:39.646Z,4.03
2018-07-16T09:41:08.286Z,4.12
2018-07-16T09:43:37.053Z,4.00
2018-07-16T09:46:05.696Z,4.28
2018-07-16T09:48:34.391Z,4.55
2018-07-16T09:51:03.625Z,4.12
2018-07-16T09:53:32.201Z,4.22
2018-07-16T09:56:00.863Z,3.90
2018-07-16T09:58:29.409Z,3.67
2018-07-16T10:01:03.273Z,4.03
2018-07-16T10:03:32.266Z,4.53
2018-07-16T10:06:00.846Z,4.58
2018-07-16T10:08:30.399Z,4.50
2018-07-16T10:10:58.975Z,4.53
2018-07-16T10:13:27.668Z,4.70
2018-07-16T10:15:56.242Z,3.77
2018-07-16T10:18:24.884Z,4.60
2018-07-16T10:20:53.610Z,4.00
2018-07-16T10:23:22.204Z,4.17
2018-07-16T10:25:50.900Z,3.77
2018-07-16T10:28:19.655Z,3.95
2018-07-16T10:30:48.319Z,4.28
2018-07-16T10:33:16.849Z,4.17
2018-07-16T10:35:47.579Z,4.10
2018-07-16T10:38:16.253Z,3.85
2018-07-16T10:40:45.242Z,4.70
2018-07-16T10:43:14.404Z,4.78
2018-07-16T10:45:42.986Z,4.40
2018-07-16T10:48:11.508Z,5.05
2018-07-16T10:50:40.150Z,4.65
2018-07-16T10:53:08.765Z,4.40
2018-07-16T10:55:37.412Z,4.25
2018-07-16T10:58:06.209Z,4.17
2018-07-16T11:00:34.853Z,4.25
2018-07-16T11:03:03.963Z,4.80
2018-07-16T11:05:32.512Z,4.58
2018-07-16T11:08:01.033Z,4.35
2018-07-16T11:10:29.566Z,4.20
2018-07-16T11:12:58.155Z,4.17
2018-07-16T11:15:26.948Z,4.10
2018-07-16T11:17:55.822Z,4.40
2018-07-16T11:20:24.629Z,4.42
2018-07-16T11:22:53.582Z,4.12
2018-07-16T11:25:22.449Z,4.30
2018-07-16T11:27:51.264Z,4.03
2018-07-16T11:30:19.902Z,4.55
2018-07-16T11:32:48.513Z,4.40
2018-07-16T11:35:17.182Z,4.45
2018-07-16T11:37:45.743Z,4.15
2018-07-16T11:40:14.383Z,4.62
2018-07-16T11:42:42.948Z,4.60
2018-07-16T11:45:11.595Z,4.30
2018-07-16T11:47:40.100Z,4.40
2018-07-16T11:50:08.779Z,4.40
2018-07-16T11:52:37.352Z,5.22
2018-07-16T11:55:05.873Z,3.98
2018-07-16T11:57:34.464Z,4.65
2018-07-16T12:00:02.972Z,4.22
2018-07-16T12:02:31.519Z,4.22
2018-07-16T12:05:00.103Z,4.58
2018-07-16T12:07:28.723Z,4.28
2018-07-16T12:09:57.276Z,4.22
2018-07-16T12:12:26.024Z,4.40
2018-07-16T12:14:54.475Z,4.50
2018-07-16T12:17:23.103Z,4.10
2018-07-16T12:19:51.623Z,4.40
2018-07-16T12:22:20.155Z,3.98
2018-07-16T12:24:49.445Z,3.90
2018-07-16T12:27:18.138Z,4.10
2018-07-16T12:29:46.662Z,4.47
2018-07-16T12:32:15.421Z,3.98
2018-07-16T12:34:44.148Z,3.62
2018-07-16T12:37:12.716Z,3.92
2018-07-16T12:39:42.159Z,3.85
2018-07-16T12:42:10.572Z,4.00
2018-07-16T12:44:39.119Z,4.37
2018-07-16T12:47:07.577Z,3.90
2018-07-16T12:49:36.307Z,4.00
2018-07-16T12:52:04.747Z,3.60
2018-07-16T12:54:33.199Z,3.47
2018-07-16T12:57:01.717Z,3.77
2018-07-16T12:59:30.043Z,3.60
2018-07-16T13:01:58.430Z,3.80
2018-07-16T13:04:29.219Z,3.87
2018-07-16T13:06:59.866Z,3.85
2018-07-16T13:09:29.641Z,3.92
2018-07-16T13:11:59.615Z,3.67
2018-07-16T13:14:28.041Z,4.00
2018-07-16T13:16:56.684Z,3.90
2018-07-16T13:19:24.987Z,4.00
2018-07-16T13:21:53.370Z,3.62
2018-07-16T13:24:21.713Z,4.00
2018-07-16T13:26:50.088Z,3.77
2018-07-16T13:29:18.426Z,3.80
2018-07-16T13:31:47.075Z,3.60
2018-07-16T13:34:31.664Z,3.72
2018-07-16T13:37:01.888Z,3.55
2018-07-16T13:39:30.204Z,3.65
2018-07-16T13:42:06.669Z,3.83
2018-07-16T13:44:34.972Z,3.70
2018-07-16T13:47:03.325Z,3.40
2018-07-16T13:49:31.747Z,3.62
2018-07-16T13:52:00.160Z,3.60
2018-07-16T13:54:34.050Z,3.83
2018-07-16T13:57:03.260Z,4.30
2018-07-16T13:59:31.558Z,3.42
2018-07-16T14:02:00.190Z,3.62
2018-07-16T14:04:28.652Z,3.85
2018-07-16T14:06:57.077Z,3.70
2018-07-16T14:09:25.672Z,3.70
2018-07-16T14:11:54.305Z,3.65
2018-07-16T14:14:22.663Z,3.33
2018-07-16T14:16:51.142Z,3.58
2018-07-16T14:19:19.474Z,3.67
2018-07-16T14:21:48.102Z,3.60
2018-07-16T14:24:16.611Z,3.40
2018-07-16T14:26:45.168Z,3.35
2018-07-16T14:29:13.489Z,3.50
2018-07-16T14:31:41.792Z,3.50
2018-07-16T14:34:10.144Z,3.27
2018-07-16T14:36:38.430Z,3.12
2018-07-16T14:39:07.176Z,3.55
2018-07-16T14:41:35.799Z,3.30
2018-07-16T14:44:04.743Z,3.60
2018-07-16T14:46:33.295Z,3.45
2018-07-16T14:49:01.676Z,3.52
2018-07-16T14:51:30.026Z,3.60
2018-07-16T14:53:58.425Z,3.35
2018-07-16T14:56:26.775Z,3.20
2018-07-16T14:58:55.189Z,3.30
2018-07-16T15:01:23.589Z,3.30
2018-07-16T15:03:51.906Z,3.27
2018-07-16T15:06:20.201Z,3.30
2018-07-16T15:08:48.536Z,3.52
2018-07-16T15:11:16.853Z,3.05
2018-07-16T15:13:45.403Z,3.00
2018-07-16T15:16:13.766Z,3.05
2018-07-16T15:18:42.086Z,3.10
2018-07-16T15:21:10.717Z,2.80
2018-07-16T15:23:38.786Z,3.20
2018-07-16T15:26:07.305Z,3.12
2018-07-16T15:28:35.663Z,2.98
2018-07-16T15:31:04.004Z,2.83
2018-07-16T15:33:32.458Z,2.90
2018-07-16T15:36:00.871Z,2.98
2018-07-16T15:38:29.347Z,3.10
2018-07-16T15:40:57.777Z,3.10
2018-07-16T15:43:26.274Z,3.50
2018-07-16T15:45:54.800Z,3.20
2018-07-16T15:48:24.134Z,3.17
2018-07-16T15:50:52.478Z,3.90
2018-07-16T15:53:20.819Z,3.20
2018-07-16T15:55:49.203Z,3.27
2018-07-16T15:58:17.638Z,3.35
2018-07-16T16:00:46.004Z,3.02
2018-07-16T16:03:14.609Z,3.00
2018-07-16T16:05:42.947Z,3.10
2018-07-16T16:08:11.290Z,3.30
2018-07-16T16:10:39.674Z,3.17
2018-07-16T16:13:08.108Z,3.47
2018-07-16T16:15:36.616Z,3.12
2018-07-16T16:18:05.729Z,3.50
2018-07-16T16:20:34.172Z,3.60
2018-07-16T16:23:03.191Z,3.80
2018-07-16T16:25:31.671Z,3.60
2018-07-16T16:27:59.994Z,3.35
2018-07-16T16:30:28.385Z,3.50
2018-07-16T16:32:56.787Z,3.75
2018-07-16T16:35:25.223Z,3.40
2018-07-16T16:37:53.692Z,3.55
2018-07-16T16:40:22.131Z,3.50
2018-07-16T16:42:50.696Z,3.60
2018-07-16T16:45:20.394Z,3.62
2018-07-16T16:47:49.406Z,3.87
2018-07-16T16:50:17.822Z,4.20
2018-07-16T16:52:46.243Z,3.58
2018-07-16T16:55:14.735Z,3.37
2018-07-16T16:57:43.021Z,3.50
2018-07-16T17:00:11.413Z,3.75
2018-07-16T17:02:39.836Z,3.67
2018-07-16T17:05:08.263Z,3.95
2018-07-16T17:07:36.848Z,3.50
2018-07-16T17:10:06.618Z,3.65
2018-07-16T17:12:36.165Z,3.50
2018-07-16T17:15:04.768Z,3.58
2018-07-16T17:17:33.188Z,3.33
2018-07-16T17:20:01.589Z,3.95
2018-07-16T17:22:33.013Z,4.90
2018-07-16T17:25:02.418Z,3.92
2018-07-16T17:27:30.779Z,4.30
2018-07-16T17:29:59.135Z,4.05
2018-07-16T17:32:27.528Z,3.87
2018-07-16T17:34:55.988Z,3.92
2018-07-16T17:37:24.357Z,3.80
2018-07-16T17:39:52.722Z,4.10
2018-07-16T17:42:21.031Z,3.87
2018-07-16T17:44:49.587Z,3.70
2018-07-16T17:47:20.402Z,3.58
2018-07-16T17:49:49.450Z,3.72
2018-07-16T17:52:17.810Z,3.90
2018-07-16T17:54:46.139Z,3.47
2018-07-16T17:57:15.199Z,3.62
2018-07-16T18:00:03.279Z,3.83
2018-07-16T18:02:31.863Z,3.45
2018-07-16T18:05:00.230Z,3.92
2018-07-16T18:07:28.575Z,3.87
2018-07-16T18:09:56.921Z,3.92
2018-07-16T18:12:25.354Z,4.10
2018-07-16T18:14:53.714Z,3.40
2018-07-16T18:17:22.071Z,3.83
2018-07-16T18:19:51.426Z,3.67
2018-07-16T18:22:19.824Z,3.70
2018-07-16T18:24:48.284Z,3.98
2018-07-16T18:27:17.393Z,3.30
2018-07-16T18:29:45.954Z,3.40
2018-07-16T18:32:14.714Z,3.37
2018-07-16T18:34:44.098Z,3.42
2018-07-16T18:37:12.593Z,3.70
2018-07-16T18:39:42.530Z,4.12
2018-07-16T18:42:10.947Z,4.40
2018-07-16T18:44:40.713Z,4.47
2018-07-16T18:47:09.701Z,4.85
2018-07-16T18:49:38.256Z,4.80
2018-07-16T18:52:06.701Z,4.47
2018-07-16T18:54:35.108Z,4.12
2018-07-16T18:57:04.824Z,4.80
2018-07-16T18:59:33.171Z,4.15
2018-07-16T19:02:01.525Z,4.08
2018-07-16T19:04:32.429Z,4.17
2018-07-16T19:07:03.047Z,4.70
2018-07-16T19:09:31.654Z,4.50
2018-07-16T19:12:00.254Z,5.10
2018-07-16T19:14:29.033Z,5.17
2018-07-16T19:16:58.015Z,5.10
2018-07-16T19:19:26.375Z,5.22
2018-07-16T19:21:54.797Z,5.10
2018-07-16T19:24:23.191Z,6.60
2018-07-16T19:27:07.595Z,5.60
2018-07-16T19:32:18.862Z,5.00
2018-07-16T19:34:47.352Z,5.45
2018-07-16T19:37:16.793Z,6.03
2018-07-16T19:39:56.390Z,5.60
2018-07-16T19:42:25.853Z,5.37
2018-07-16T19:44:54.938Z,5.87
2018-07-16T19:47:23.546Z,5.92
2018-07-16T19:50:03.373Z,5.30
2018-07-16T19:52:46.266Z,5.08
2018-07-16T19:55:23.870Z,5.53
2018-07-16T19:57:57.773Z,5.55
2018-07-16T20:03:16.781Z,5.85
2018-07-16T20:05:52.795Z,6.85
2018-07-16T20:08:32.044Z,6.10
2018-07-16T20:11:00.584Z,5.58
2018-07-16T20:14:07.272Z,6.30
2018-07-16T20:16:43.533Z,6.17
2018-07-16T20:19:12.718Z,6.17
2018-07-16T20:21:42.521Z,6.40
2018-07-16T20:24:10.839Z,6.92
2018-07-16T20:26:40.914Z,6.75
2018-07-16T20:29:09.271Z,6.92
2018-07-16T20:31:37.629Z,8.48
2018-07-16T20:34:06.031Z,28.62
2018-07-16T20:36:34.767Z,32.20
2018-07-16T20:39:04.328Z,15.95
2018-07-16T20:41:34.695Z,9.18
2018-07-16T20:44:03.280Z,8.05
2018-07-16T20:46:31.719Z,19.57
2018-07-16T20:49:00.320Z,16.37
2018-07-16T20:51:28.685Z,8.63
2018-07-16T20:53:58.114Z,7.33
2018-07-16T20:56:27.676Z,7.80
2018-07-16T20:58:56.213Z,7.60
2018-07-16T21:01:25.126Z,11.63
2018-07-16T21:03:53.475Z,19.70
2018-07-16T21:06:21.945Z,29.30
2018-07-16T21:08:50.361Z,15.48
2018-07-16T21:11:18.731Z,11.05
2018-07-16T21:13:47.461Z,8.28
2018-07-16T21:16:15.844Z,7.75
2018-07-16T21:18:44.546Z,8.50
2018-07-16T21:21:12.977Z,8.30
2018-07-16T21:23:41.350Z,15.25
2018-07-16T21:26:09.999Z,11.15
2018-07-16T21:28:38.406Z,11.05
2018-07-16T21:31:07.373Z,12.90
2018-07-16T21:33:35.720Z,15.05
2018-07-16T21:36:04.066Z,10.93
2018-07-16T21:38:32.598Z,11.80
2018-07-16T21:41:00.940Z,11.05
2018-07-16T21:43:29.394Z,9.78
2018-07-16T21:45:57.722Z,9.20
2018-07-16T21:48:26.181Z,8.98
2018-07-16T21:50:55.406Z,8.70
2018-07-16T21:53:23.798Z,8.45
2018-07-16T21:55:52.245Z,9.03
2018-07-16T21:58:20.599Z,8.45
2018-07-16T22:00:49.450Z,9.40
2018-07-16T22:03:17.780Z,8.70
2018-07-16T22:05:46.170Z,8.40
2018-07-16T22:08:15.525Z,8.68
2018-07-16T22:10:43.847Z,9.03
2018-07-16T22:13:12.383Z,9.25
2018-07-16T22:15:40.765Z,8.70
2018-07-16T22:18:09.101Z,8.73
2018-07-16T22:20:37.449Z,8.98
2018-07-16T22:23:05.871Z,9.85
2018-07-16T22:25:34.225Z,9.70
2018-07-16T22:28:02.654Z,8.88
2018-07-16T22:30:30.981Z,8.90
2018-07-16T22:32:59.424Z,8.85
2018-07-16T22:35:27.734Z,9.00
2018-07-16T22:37:56.087Z,8.38
2018-07-16T22:40:24.495Z,9.78
2018-07-16T22:42:52.929Z,8.43
2018-07-16T22:45:21.221Z,9.03
2018-07-16T22:47:49.833Z,8.98
2018-07-16T22:50:18.259Z,9.30
2018-07-16T22:52:46.687Z,8.70
2018-07-16T22:55:15.023Z,9.08
2018-07-16T22:57:43.359Z,8.30
2018-07-16T23:00:11.710Z,8.80
2018-07-16T23:02:40.134Z,9.33
2018-07-16T23:05:08.444Z,9.00
2018-07-16T23:07:36.809Z,9.40
2018-07-16T23:10:05.225Z,9.65
2018-07-16T23:12:33.726Z,9.45
2018-07-16T23:15:02.039Z,9.05
2018-07-16T23:17:30.383Z,8.85
2018-07-16T23:19:58.707Z,9.18
2018-07-16T23:22:27.231Z,9.48
2018-07-16T23:24:55.639Z,9.43
2018-07-16T23:27:23.989Z,9.40
2018-07-16T23:29:52.331Z,8.70
2018-07-16T23:32:21.359Z,9.68
2018-07-16T23:34:49.686Z,9.60
2018-07-16T23:37:18.050Z,9.77
2018-07-16T23:39:46.476Z,9.00
2018-07-16T23:42:14.771Z,9.33
2018-07-16T23:44:43.125Z,9.30
2018-07-16T23:47:11.452Z,9.53
2018-07-16T23:49:39.855Z,9.83
2018-07-16T23:52:08.211Z,9.67
2018-07-16T23:54:36.621Z,9.67
2018-07-16T23:57:05.059Z,9.43
2018-07-16T23:59:33.415Z,9.70
